Time;durP1;ratioP1;P1;durP2;ratioP2;P2;SDS_P1;SDS_P2;PMS_P1;PMS_P2;Temp;Humidity;BMP_temperature;BMP_pressure;BME280_temperature;BME280_humidity;BME280_pressure;Samples;Min_cycle;Max_cycle;Signal;HPM_P1;HPM_P2
2023/08/30 00:00:39;;;;;;;0.50;0.50;;;23.20;55.60;;;;;;5131207;27;20030;-70
2023/08/30 00:03:05;;;;;;;0.40;0.40;;;23.20;55.50;;;;;;5131246;27;20078;-68
2023/08/30 00:05:31;;;;;;;0.52;0.50;;;23.20;55.50;;;;;;5131959;27;20069;-70
2023/08/30 00:07:57;;;;;;;0.50;0.50;;;23.20;55.50;;;;;;5132134;27;20027;-68
2023/08/30 00:10:22;;;;;;;0.40;0.40;;;23.20;55.50;;;;;;5133046;27;20020;-68
2023/08/30 00:12:48;;;;;;;0.40;0.40;;;23.20;55.50;;;;;;5133169;27;20071;-68
2023/08/30 00:15:14;;;;;;;0.40;0.40;;;23.20;55.50;;;;;;5132182;27;20027;-63
2023/08/30 00:17:40;;;;;;;0.30;0.30;;;23.20;55.50;;;;;;5113933;28;20034;-64
2023/08/30 00:20:06;;;;;;;0.30;0.30;;;23.20;55.50;;;;;;5134065;27;20040;-65
2023/08/30 00:22:33;;;;;;;0.40;0.40;;;23.20;55.50;;;;;;5132866;27;20023;-63
2023/08/30 00:24:59;;;;;;;0.40;0.40;;;23.20;55.60;;;;;;5132914;27;20069;-63
2023/08/30 00:27:24;;;;;;;0.40;0.40;;;23.20;55.50;;;;;;5132140;27;20035;-65
2023/08/30 00:29:50;;;;;;;0.47;0.47;;;23.20;55.50;;;;;;5133371;27;20039;-64
2023/08/30 00:32:16;;;;;;;0.77;0.43;;;23.20;55.50;;;;;;5131091;28;20035;-64
2023/08/30 00:34:42;;;;;;;0.47;0.43;;;23.20;55.50;;;;;;5132487;28;20028;-64
2023/08/30 00:37:08;;;;;;;0.40;0.40;;;23.20;55.50;;;;;;5132453;28;20030;-66
2023/08/30 00:39:34;;;;;;;0.40;0.40;;;23.20;55.50;;;;;;5133525;28;20072;-64
2023/08/30 00:42:04;;;;;;;0.50;0.50;;;23.20;55.60;;;;;;5129927;28;20023;-64
2023/08/30 00:44:30;;;;;;;0.40;0.40;;;23.20;55.60;;;;;;5133660;28;20573;-66
2023/08/30 00:46:56;;;;;;;0.40;0.40;;;23.20;55.60;;;;;;5130100;28;20093;-66
2023/08/30 00:49:21;;;;;;;0.50;0.50;;;23.10;55.50;;;;;;5133316;28;20016;-66
2023/08/30 00:51:47;;;;;;;0.50;0.50;;;23.20;55.60;;;;;;5130253;28;20114;-66
2023/08/30 00:54:13;;;;;;;0.40;0.40;;;23.20;55.60;;;;;;5129585;28;20471;-65
2023/08/30 00:56:38;;;;;;;0.40;0.40;;;23.10;55.50;;;;;;5128934;28;20023;-67
2023/08/30 00:59:04;;;;;;;0.30;0.30;;;23.20;55.60;;;;;;5131464;28;20060;-66
2023/08/30 01:01:30;;;;;;;0.60;0.50;;;23.20;55.50;;;;;;5130087;28;20023;-65
2023/08/30 01:03:56;;;;;;;0.75;0.60;;;23.20;55.60;;;;;;5131725;28;20023;-66
2023/08/30 01:06:21;;;;;;;0.30;0.30;;;23.20;55.60;;;;;;5135181;27;20087;-66
2023/08/30 01:08:47;;;;;;;0.40;0.40;;;23.20;55.60;;;;;;5135009;27;20031;-66
2023/08/30 01:11:28;;;;;;;0.50;0.50;;;23.20;55.60;;;;;;5136658;27;20038;-66
2023/08/30 01:14:00;;;;;;;0.40;0.40;;;23.20;55.60;;;;;;5133636;27;20039;-66
2023/08/30 01:16:25;;;;;;;0.40;0.40;;;23.20;55.60;;;;;;5134267;27;20053;-66
2023/08/30 01:18:56;;;;;;;0.45;0.45;;;23.10;55.50;;;;;;5128201;27;20024;-66
2023/08/30 01:21:53;;;;;;;0.40;0.40;;;23.10;55.50;;;;;;5134271;27;20020;-66
2023/08/30 01:24:29;;;;;;;0.45;0.45;;;23.10;55.50;;;;;;5135272;27;20016;-65
2023/08/30 01:27:12;;;;;;;0.40;0.40;;;23.10;55.50;;;;;;5133444;27;20019;-65
2023/08/30 01:29:43;;;;;;;0.40;0.40;;;23.10;55.50;;;;;;5134500;27;20452;-67
2023/08/30 01:32:09;;;;;;;0.50;0.50;;;23.10;55.50;;;;;;5133521;27;20036;-66
2023/08/30 01:34:37;;;;;;;0.40;0.40;;;23.10;55.50;;;;;;5135015;27;20051;-67
2023/08/30 01:37:07;;;;;;;0.47;0.47;;;23.10;55.50;;;;;;5135211;27;20514;-65
2023/08/30 01:39:33;;;;;;;0.40;0.40;;;23.10;55.50;;;;;;5134915;27;20023;-65
2023/08/30 01:42:00;;;;;;;0.43;0.43;;;23.10;55.50;;;;;;5133168;27;20124;-65
2023/08/30 01:44:30;;;;;;;0.50;0.50;;;23.10;55.50;;;;;;5136125;27;20028;-65
2023/08/30 01:46:57;;;;;;;0.52;0.40;;;23.10;55.50;;;;;;5135615;27;20031;-65
2023/08/30 01:49:24;;;;;;;0.30;0.30;;;23.10;56.10;;;;;;5134177;27;20031;-66
2023/08/30 01:51:51;;;;;;;0.38;0.38;;;23.10;55.50;;;;;;5119323;27;20031;-66
2023/08/30 01:54:18;;;;;;;0.35;0.35;;;23.10;55.60;;;;;;5133259;27;20433;-66
2023/08/30 01:56:47;;;;;;;0.30;0.30;;;23.10;55.60;;;;;;5134482;27;20060;-68
2023/08/30 01:59:13;;;;;;;0.40;0.40;;;23.10;55.50;;;;;;5134713;27;20038;-68
2023/08/30 02:01:39;;;;;;;0.40;0.40;;;23.10;55.60;;;;;;5133813;27;20043;-68
2023/08/30 02:04:05;;;;;;;0.45;0.45;;;23.10;55.50;;;;;;5135628;27;20070;-68
2023/08/30 02:06:42;;;;;;;0.40;0.40;;;23.10;55.50;;;;;;5133856;27;20027;-68
2023/08/30 02:09:28;;;;;;;0.52;0.50;;;23.10;55.60;;;;;;5149635;27;20019;-67
2023/08/30 02:11:55;;;;;;;0.63;0.50;;;23.10;55.60;;;;;;5134034;27;20031;-68
2023/08/30 02:14:21;;;;;;;0.52;0.50;;;23.10;55.60;;;;;;5135514;27;20036;-68
2023/08/30 02:16:48;;;;;;;0.40;0.40;;;23.10;55.50;;;;;;5134231;27;20034;-65
2023/08/30 02:19:20;;;;;;;0.40;0.40;;;23.10;55.60;;;;;;5134540;27;20063;-66
2023/08/30 02:21:47;;;;;;;0.40;0.40;;;23.10;55.60;;;;;;5135161;27;20459;-65
2023/08/30 02:24:13;;;;;;;0.40;0.40;;;23.10;55.60;;;;;;5135420;27;20020;-66
2023/08/30 02:26:38;;;;;;;0.40;0.40;;;23.10;55.60;;;;;;5116562;27;20538;-66
2023/08/30 02:29:04;;;;;;;0.50;0.50;;;23.10;55.60;;;;;;5133342;27;20031;-65
2023/08/30 02:31:30;;;;;;;0.40;0.40;;;23.10;55.60;;;;;;5117397;27;20028;-66
2023/08/30 02:33:56;;;;;;;0.60;0.60;;;23.10;55.60;;;;;;5136217;27;20224;-65
2023/08/30 02:36:21;;;;;;;0.30;0.30;;;23.10;55.60;;;;;;5134939;27;20058;-67
2023/08/30 02:38:47;;;;;;;0.50;0.50;;;23.10;55.60;;;;;;5132595;27;20441;-66
2023/08/30 02:41:12;;;;;;;0.50;0.40;;;23.10;55.60;;;;;;5133672;27;20035;-66
2023/08/30 02:43:38;;;;;;;0.40;0.40;;;23.10;55.60;;;;;;5132284;27;20023;-67
2023/08/30 02:46:05;;;;;;;0.40;0.40;;;23.10;55.60;;;;;;5115079;27;20486;-67
2023/08/30 02:48:31;;;;;;;0.50;0.50;;;23.10;55.60;;;;;;5134635;27;20024;-67
2023/08/30 02:50:57;;;;;;;0.57;0.50;;;23.10;55.60;;;;;;5133564;27;20097;-67
2023/08/30 02:53:23;;;;;;;0.50;0.50;;;23.10;55.60;;;;;;5132469;27;20556;-67
2023/08/30 02:55:49;;;;;;;0.40;0.40;;;23.10;55.60;;;;;;5134747;27;20027;-68
2023/08/30 02:58:14;;;;;;;0.40;0.40;;;23.10;55.60;;;;;;5133150;27;20042;-67
2023/08/30 03:00:40;;;;;;;0.40;0.40;;;23.10;55.60;;;;;;5132893;27;20031;-67
2023/08/30 03:03:06;;;;;;;0.35;0.35;;;23.10;55.60;;;;;;5134236;27;20024;-67
2023/08/30 03:05:31;;;;;;;0.30;0.30;;;23.10;55.60;;;;;;5127046;27;20044;-63
2023/08/30 03:07:57;;;;;;;0.40;0.40;;;23.00;55.60;;;;;;5132816;27;20030;-65
2023/08/30 03:10:23;;;;;;;0.30;0.30;;;23.00;55.50;;;;;;5116079;27;20063;-64
2023/08/30 03:12:49;;;;;;;0.40;0.40;;;23.00;56.10;;;;;;5133976;27;20030;-63
2023/08/30 03:15:14;;;;;;;0.50;0.40;;;23.00;55.60;;;;;;5132579;27;20122;-63
2023/08/30 03:17:40;;;;;;;0.40;0.40;;;23.00;55.60;;;;;;5132385;27;20057;-64
2023/08/30 03:20:06;;;;;;;0.50;0.50;;;23.00;55.60;;;;;;5115458;27;20136;-63
2023/08/30 03:22:32;;;;;;;0.50;0.45;;;23.00;55.60;;;;;;5134073;27;20068;-64
2023/08/30 03:24:58;;;;;;;0.63;0.40;;;23.00;55.60;;;;;;5131687;27;20027;-65
2023/08/30 03:27:24;;;;;;;0.57;0.50;;;23.00;55.60;;;;;;5132822;27;20039;-64
2023/08/30 03:29:50;;;;;;;0.50;0.50;;;23.00;55.60;;;;;;5132047;27;20451;-63
2023/08/30 03:32:17;;;;;;;0.50;0.40;;;23.00;55.60;;;;;;5132316;27;20031;-63
2023/08/30 03:34:46;;;;;;;0.40;0.40;;;23.00;55.60;;;;;;5133345;27;20031;-63
2023/08/30 03:37:15;;;;;;;0.40;0.40;;;23.00;55.60;;;;;;5131973;27;20039;-64
2023/08/30 03:39:41;;;;;;;0.30;0.30;;;23.00;55.50;;;;;;5116371;27;20027;-65
2023/08/30 03:42:06;;;;;;;0.57;0.50;;;23.00;55.50;;;;;;5122384;27;20016;-64
2023/08/30 03:44:32;;;;;;;0.40;0.40;;;23.00;55.60;;;;;;5132347;27;20107;-63
2023/08/30 03:46:58;;;;;;;0.40;0.40;;;23.00;55.60;;;;;;5132152;27;20028;-64
2023/08/30 03:49:23;;;;;;;0.40;0.40;;;23.00;55.60;;;;;;5131146;27;20023;-65
2023/08/30 03:51:49;;;;;;;0.50;0.50;;;23.00;55.60;;;;;;5132925;27;20050;-64
2023/08/30 03:54:16;;;;;;;0.40;0.40;;;23.00;55.60;;;;;;5134520;27;20039;-65
2023/08/30 03:56:43;;;;;;;0.32;0.32;;;23.00;55.60;;;;;;5132645;27;20031;-65
2023/08/30 03:59:09;;;;;;;0.50;0.50;;;23.00;55.60;;;;;;5131960;27;20026;-65
2023/08/30 04:01:35;;;;;;;0.40;0.40;;;23.00;55.60;;;;;;5132974;27;20023;-64
2023/08/30 04:04:00;;;;;;;0.30;0.30;;;23.00;55.60;;;;;;5134874;27;20026;-65
2023/08/30 04:06:26;;;;;;;0.50;0.50;;;23.00;55.60;;;;;;5130925;27;20044;-65
2023/08/30 04:08:52;;;;;;;0.40;0.40;;;23.00;55.60;;;;;;5134133;27;20110;-65
2023/08/30 04:11:17;;;;;;;0.50;0.50;;;23.00;55.60;;;;;;5135735;27;20031;-65
2023/08/30 04:13:43;;;;;;;0.40;0.40;;;23.00;55.60;;;;;;5130434;27;20514;-64
2023/08/30 04:16:08;;;;;;;0.40;0.40;;;23.00;55.60;;;;;;5133791;27;20027;-68
2023/08/30 04:18:34;;;;;;;0.40;0.40;;;23.00;55.60;;;;;;5131868;27;20035;-68
2023/08/30 04:21:02;;;;;;;0.50;0.50;;;23.00;56.10;;;;;;5132122;27;20047;-68
2023/08/30 04:23:30;;;;;;;0.50;0.50;;;23.00;55.60;;;;;;5131353;27;20020;-68
2023/08/30 04:25:56;;;;;;;0.40;0.40;;;23.00;55.80;;;;;;5132675;27;20023;-66
2023/08/30 04:28:21;;;;;;;0.65;0.45;;;22.90;55.60;;;;;;5129529;27;20028;-68
2023/08/30 04:30:48;;;;;;;0.40;0.40;;;23.00;55.60;;;;;;5133526;27;20027;-68
2023/08/30 04:33:13;;;;;;;0.30;0.30;;;23.00;55.60;;;;;;5131573;28;20023;-67
2023/08/30 04:35:40;;;;;;;0.40;0.40;;;23.00;55.60;;;;;;5131211;28;20020;-67
2023/08/30 04:38:06;;;;;;;0.40;0.40;;;23.00;55.60;;;;;;5133533;28;20026;-66
2023/08/30 04:40:32;;;;;;;0.40;0.40;;;22.90;55.60;;;;;;5134124;27;20043;-66
2023/08/30 04:43:01;;;;;;;0.40;0.40;;;22.90;55.60;;;;;;5134179;27;20031;-67
2023/08/30 04:45:27;;;;;;;0.50;0.40;;;22.90;55.60;;;;;;5135440;27;20111;-66
2023/08/30 04:47:53;;;;;;;0.50;0.50;;;22.90;55.60;;;;;;5136755;27;20024;-67
2023/08/30 04:50:19;;;;;;;0.50;0.50;;;22.90;55.60;;;;;;5137410;27;20055;-67
2023/08/30 04:52:44;;;;;;;0.40;0.40;;;22.90;55.60;;;;;;5136341;27;20035;-66
2023/08/30 04:55:10;;;;;;;0.40;0.40;;;22.90;55.60;;;;;;5138104;27;20103;-67
2023/08/30 04:57:36;;;;;;;0.40;0.40;;;22.90;55.60;;;;;;5137019;27;20023;-64
2023/08/30 05:00:04;;;;;;;0.43;0.43;;;22.90;55.60;;;;;;5133802;27;20023;-64
2023/08/30 05:02:31;;;;;;;0.40;0.40;;;22.90;55.60;;;;;;5137252;27;20026;-64
2023/08/30 05:04:56;;;;;;;0.50;0.50;;;22.90;55.60;;;;;;5135465;27;20031;-64
2023/08/30 05:07:22;;;;;;;0.40;0.40;;;22.90;55.60;;;;;;5136437;27;20029;-62
2023/08/30 05:09:48;;;;;;;0.40;0.40;;;22.90;55.60;;;;;;5134656;27;20066;-62
2023/08/30 05:12:13;;;;;;;0.30;0.30;;;22.90;55.60;;;;;;5135723;27;20023;-64
2023/08/30 05:14:40;;;;;;;0.30;0.30;;;22.90;55.60;;;;;;5132909;27;20031;-63
2023/08/30 05:17:06;;;;;;;0.50;0.50;;;22.90;55.60;;;;;;5136144;27;20015;-63
2023/08/30 05:19:32;;;;;;;0.40;0.40;;;22.90;55.60;;;;;;5134910;27;20030;-65
2023/08/30 05:21:57;;;;;;;0.45;0.40;;;22.90;55.60;;;;;;5134510;27;20026;-63
2023/08/30 05:24:23;;;;;;;0.40;0.40;;;22.90;55.60;;;;;;5137153;27;20024;-64
2023/08/30 05:26:49;;;;;;;0.40;0.40;;;22.90;55.60;;;;;;5134945;27;20054;-64
2023/08/30 05:29:15;;;;;;;0.57;0.50;;;22.90;55.60;;;;;;5133413;27;20050;-64
2023/08/30 05:31:41;;;;;;;0.30;0.30;;;22.90;55.60;;;;;;5133867;27;20046;-64
2023/08/30 05:34:07;;;;;;;0.40;0.40;;;22.90;55.60;;;;;;5133875;27;20047;-63
2023/08/30 05:36:32;;;;;;;0.35;0.35;;;22.90;55.60;;;;;;5135842;27;20080;-63
2023/08/30 05:38:58;;;;;;;0.40;0.40;;;22.90;55.60;;;;;;5133381;27;20062;-64
2023/08/30 05:41:24;;;;;;;0.40;0.40;;;22.90;55.60;;;;;;5135624;27;20027;-63
2023/08/30 05:43:51;;;;;;;0.40;0.40;;;22.90;56.10;;;;;;5134513;27;20018;-63
2023/08/30 05:46:17;;;;;;;0.35;0.35;;;22.90;55.60;;;;;;5126039;27;20038;-64
2023/08/30 05:48:43;;;;;;;0.40;0.40;;;22.90;55.60;;;;;;5134420;27;20032;-65
2023/08/30 05:51:08;;;;;;;0.35;0.35;;;22.90;55.60;;;;;;5135317;27;20058;-64
2023/08/30 05:53:34;;;;;;;0.50;0.50;;;22.90;55.60;;;;;;5135704;27;20031;-64
2023/08/30 05:55:59;;;;;;;0.30;0.30;;;22.90;55.60;;;;;;5135308;27;20045;-65
2023/08/30 05:58:25;;;;;;;0.40;0.40;;;22.90;55.60;;;;;;5134947;27;20032;-65
2023/08/30 06:00:54;;;;;;;0.50;0.50;;;22.90;55.60;;;;;;5134634;27;20555;-64
2023/08/30 06:03:19;;;;;;;0.40;0.40;;;22.90;55.60;;;;;;5118047;27;20054;-64
2023/08/30 06:05:45;;;;;;;0.40;0.40;;;22.90;55.60;;;;;;5136934;27;20541;-64
2023/08/30 06:08:12;;;;;;;0.50;0.50;;;22.90;55.60;;;;;;5134918;27;20044;-68
2023/08/30 06:10:38;;;;;;;0.40;0.40;;;22.90;55.60;;;;;;5135302;27;20055;-68
2023/08/30 06:13:04;;;;;;;0.43;0.40;;;22.90;55.60;;;;;;5133885;27;20031;-69
2023/08/30 06:15:30;;;;;;;0.40;0.40;;;22.90;55.60;;;;;;5130362;27;20375;-69
2023/08/30 06:17:55;;;;;;;0.40;0.40;;;22.90;55.60;;;;;;5117003;27;20032;-69
2023/08/30 06:20:21;;;;;;;0.30;0.30;;;22.90;55.60;;;;;;5136166;27;20035;-68
2023/08/30 06:22:46;;;;;;;0.40;0.40;;;22.80;55.60;;;;;;5134325;27;20027;-68
2023/08/30 06:25:12;;;;;;;0.40;0.40;;;22.90;55.60;;;;;;5137495;27;20032;-68
2023/08/30 06:27:58;;;;;;;0.40;0.40;;;22.90;55.60;;;;;;5134502;27;20016;-68
2023/08/30 06:30:29;;;;;;;0.60;0.40;;;22.80;55.60;;;;;;5133807;27;20104;-67
2023/08/30 06:32:55;;;;;;;0.50;0.50;;;22.90;55.60;;;;;;5136279;27;20030;-69
2023/08/30 06:35:21;;;;;;;0.40;0.40;;;22.80;55.60;;;;;;5134718;27;20023;-68
2023/08/30 06:37:46;;;;;;;0.40;0.40;;;22.80;55.60;;;;;;5134663;27;20091;-68
2023/08/30 06:40:12;;;;;;;0.40;0.40;;;22.80;55.60;;;;;;5133363;27;20031;-69
2023/08/30 06:42:38;;;;;;;0.40;0.40;;;22.90;55.60;;;;;;5134732;27;20027;-69
2023/08/30 06:45:04;;;;;;;0.43;0.43;;;22.80;55.60;;;;;;5132793;27;20023;-68
2023/08/30 06:47:30;;;;;;;0.47;0.47;;;22.80;55.60;;;;;;5135598;27;20023;-68
2023/08/30 06:49:57;;;;;;;0.38;0.38;;;22.80;55.60;;;;;;5134331;27;20349;-69
2023/08/30 06:52:22;;;;;;;0.45;0.40;;;22.80;55.60;;;;;;5123610;27;20148;-68
2023/08/30 06:54:48;;;;;;;0.30;0.30;;;22.80;55.60;;;;;;5131905;27;20034;-68
2023/08/30 06:57:13;;;;;;;0.40;0.40;;;22.80;55.60;;;;;;5133409;27;20047;-63
2023/08/30 06:59:39;;;;;;;0.40;0.40;;;22.80;55.60;;;;;;5133328;27;20043;-64
2023/08/30 07:02:05;;;;;;;0.40;0.40;;;22.80;55.60;;;;;;5133007;27;20024;-64
2023/08/30 07:04:31;;;;;;;0.43;0.43;;;22.80;55.60;;;;;;5132278;27;20034;-63
2023/08/30 07:06:56;;;;;;;0.55;0.50;;;22.80;55.60;;;;;;5117606;27;20015;-64
2023/08/30 07:09:28;;;;;;;0.40;0.40;;;22.80;55.60;;;;;;5132191;27;20127;-64
2023/08/30 07:11:57;;;;;;;0.60;0.50;;;22.80;55.60;;;;;;5114375;27;20027;-63
2023/08/30 07:14:22;;;;;;;0.40;0.40;;;22.80;55.60;;;;;;5130026;27;20078;-64
2023/08/30 07:16:49;;;;;;;0.45;0.45;;;22.80;55.60;;;;;;5132398;27;20039;-63
2023/08/30 07:19:15;;;;;;;0.40;0.40;;;22.80;55.60;;;;;;5133472;27;20026;-64
2023/08/30 07:21:42;;;;;;;0.40;0.40;;;22.80;55.60;;;;;;5134443;27;20019;-64
2023/08/30 07:24:08;;;;;;;0.30;0.30;;;22.80;55.60;;;;;;5131212;27;20565;-63
2023/08/30 07:26:33;;;;;;;0.40;0.40;;;22.80;55.60;;;;;;5134369;27;20038;-64
2023/08/30 07:28:59;;;;;;;0.40;0.40;;;22.80;56.20;;;;;;5133146;27;20127;-63
2023/08/30 07:31:25;;;;;;;0.38;0.38;;;22.80;55.70;;;;;;5130342;27;20063;-63
2023/08/30 07:33:50;;;;;;;0.40;0.40;;;22.80;55.60;;;;;;5134882;27;20027;-63
2023/08/30 07:36:16;;;;;;;0.38;0.38;;;22.80;55.60;;;;;;5115695;27;20069;-63
2023/08/30 07:38:41;;;;;;;0.50;0.50;;;22.80;55.70;;;;;;5131635;27;20065;-64
2023/08/30 07:41:07;;;;;;;0.60;0.50;;;22.80;55.60;;;;;;5114787;28;20023;-64
2023/08/30 07:43:33;;;;;;;0.40;0.40;;;22.80;55.60;;;;;;5132091;27;20031;-64
2023/08/30 07:45:59;;;;;;;0.40;0.40;;;22.80;55.60;;;;;;5130188;27;20486;-64
2023/08/30 07:48:24;;;;;;;0.40;0.40;;;22.80;55.70;;;;;;5115689;27;20038;-68
2023/08/30 07:50:50;;;;;;;0.30;0.30;;;22.80;55.60;;;;;;5133006;27;20034;-68
2023/08/30 07:53:16;;;;;;;0.40;0.40;;;22.80;55.60;;;;;;5130990;27;20386;-69
2023/08/30 07:55:41;;;;;;;0.40;0.40;;;22.80;55.60;;;;;;5131711;27;20069;-68
2023/08/30 07:58:10;;;;;;;0.40;0.40;;;22.80;55.60;;;;;;5132533;27;20895;-68
2023/08/30 08:00:36;;;;;;;0.32;0.32;;;22.80;55.60;;;;;;5129519;27;20078;-68
2023/08/30 08:03:02;;;;;;;0.50;0.50;;;22.80;55.60;;;;;;5132633;27;20090;-68
2023/08/30 08:05:27;;;;;;;0.40;0.40;;;22.80;55.60;;;;;;5133052;27;20042;-69
2023/08/30 08:07:53;;;;;;;0.30;0.30;;;22.80;55.70;;;;;;5130643;27;20486;-67
2023/08/30 08:10:19;;;;;;;0.50;0.50;;;22.80;55.70;;;;;;5131920;27;20123;-68
2023/08/30 08:12:45;;;;;;;0.40;0.40;;;22.80;55.70;;;;;;5131093;27;20078;-67
2023/08/30 08:15:11;;;;;;;0.40;0.40;;;22.80;55.70;;;;;;5130161;27;20031;-67
2023/08/30 08:17:36;;;;;;;0.32;0.32;;;22.80;55.70;;;;;;5131776;27;20499;-67
2023/08/30 08:20:04;;;;;;;0.30;0.30;;;22.80;55.70;;;;;;5131116;27;20028;-67
2023/08/30 08:22:29;;;;;;;0.40;0.40;;;22.80;55.70;;;;;;5132140;27;20035;-67
2023/08/30 08:24:56;;;;;;;0.45;0.45;;;22.80;55.70;;;;;;5131529;27;20038;-67
2023/08/30 08:27:21;;;;;;;0.40;0.40;;;22.70;55.60;;;;;;5133071;27;20023;-68
2023/08/30 08:29:47;;;;;;;0.38;0.38;;;22.80;55.70;;;;;;5132681;28;20027;-68
2023/08/30 08:32:13;;;;;;;0.43;0.43;;;22.80;55.70;;;;;;5116279;28;20062;-67
2023/08/30 08:34:38;;;;;;;0.40;0.40;;;22.80;55.70;;;;;;5132451;27;20027;-69
2023/08/30 08:37:06;;;;;;;0.40;0.40;;;22.70;55.70;;;;;;5115164;28;20043;-69
2023/08/30 08:39:31;;;;;;;0.40;0.40;;;22.80;55.70;;;;;;5133066;28;20051;-67
2023/08/30 08:41:59;;;;;;;0.32;0.32;;;22.70;55.60;;;;;;5133685;28;20068;-68
2023/08/30 08:44:30;;;;;;;0.40;0.40;;;22.70;55.70;;;;;;5132943;28;20072;-67
2023/08/30 08:46:56;;;;;;;0.40;0.40;;;22.70;55.70;;;;;;5131657;28;20015;-68
2023/08/30 08:49:22;;;;;;;0.50;0.50;;;22.70;55.70;;;;;;5132167;28;20058;-69
2023/08/30 08:51:49;;;;;;;0.50;0.50;;;22.70;55.60;;;;;;5130977;28;20039;-68
2023/08/30 08:54:14;;;;;;;0.40;0.40;;;22.80;55.70;;;;;;5133282;28;20027;-68
2023/08/30 08:56:40;;;;;;;0.40;0.40;;;22.70;55.60;;;;;;5132402;28;20106;-69
2023/08/30 08:59:08;;;;;;;0.40;0.40;;;22.70;55.70;;;;;;5133643;28;20122;-65
2023/08/30 09:01:35;;;;;;;0.55;0.40;;;22.70;55.70;;;;;;5129262;28;20070;-65
2023/08/30 09:04:11;;;;;;;0.50;0.50;;;22.70;55.70;;;;;;5132094;28;20015;-65
2023/08/30 09:06:39;;;;;;;0.50;0.50;;;22.70;55.70;;;;;;5132437;28;20095;-65
2023/08/30 09:09:06;;;;;;;0.40;0.40;;;22.70;55.70;;;;;;5131406;28;20047;-65
2023/08/30 09:11:32;;;;;;;0.43;0.40;;;22.70;55.70;;;;;;5130512;28;20252;-64
2023/08/30 09:13:58;;;;;;;0.45;0.40;;;22.70;55.70;;;;;;5131570;28;20031;-64
2023/08/30 09:16:23;;;;;;;0.40;0.40;;;22.70;55.70;;;;;;5128465;28;20087;-64
2023/08/30 09:19:02;;;;;;;0.35;0.35;;;22.70;55.70;;;;;;5130526;28;20036;-69
2023/08/30 09:21:28;;;;;;;0.55;0.40;;;22.70;55.70;;;;;;5131774;28;20027;-69
2023/08/30 09:24:02;;;;;;;0.40;0.40;;;22.70;55.70;;;;;;5128792;28;20046;-68
2023/08/30 09:26:31;;;;;;;0.32;0.32;;;22.70;55.70;;;;;;5145793;27;20027;-69
2023/08/30 09:29:03;;;;;;;0.40;0.40;;;22.70;55.70;;;;;;5117659;27;20079;-68
2023/08/30 09:31:36;;;;;;;0.40;0.40;;;22.70;55.70;;;;;;5134835;27;20051;-68
2023/08/30 09:34:06;;;;;;;0.47;0.47;;;22.70;55.70;;;;;;5134310;27;20032;-68
2023/08/30 09:36:40;;;;;;;0.50;0.50;;;22.70;55.70;;;;;;5134552;27;20569;-68
2023/08/30 09:39:10;;;;;;;0.40;0.40;;;22.70;55.70;;;;;;5137474;27;20152;-68
2023/08/30 09:41:47;;;;;;;0.47;0.40;;;22.70;55.70;;;;;;5125143;27;20035;-67
2023/08/30 09:44:14;;;;;;;0.50;0.50;;;22.70;55.70;;;;;;5133363;27;20015;-66
2023/08/30 09:47:02;;;;;;;0.40;0.40;;;22.70;55.70;;;;;;5135785;27;20068;-67
2023/08/30 09:49:30;;;;;;;0.45;0.45;;;22.70;55.70;;;;;;5135373;27;20050;-67
2023/08/30 09:51:57;;;;;;;0.52;0.40;;;22.70;55.70;;;;;;5135666;27;20031;-67
2023/08/30 09:54:24;;;;;;;0.40;0.40;;;22.70;55.70;;;;;;5135980;27;20140;-68
2023/08/30 09:56:52;;;;;;;0.73;0.50;;;22.70;55.70;;;;;;5134518;27;20035;-67
2023/08/30 09:59:18;;;;;;;0.40;0.40;;;22.70;55.70;;;;;;5134656;27;20045;-67
2023/08/30 10:01:47;;;;;;;0.47;0.47;;;22.70;55.70;;;;;;5130785;27;20016;-67
2023/08/30 10:04:14;;;;;;;0.40;0.40;;;22.70;55.70;;;;;;5134366;27;20020;-68
2023/08/30 10:06:40;;;;;;;0.32;0.32;;;22.70;55.70;;;;;;5134139;27;20041;-67
2023/08/30 10:09:08;;;;;;;0.40;0.40;;;22.70;55.70;;;;;;5134444;27;20027;-65
2023/08/30 10:11:35;;;;;;;0.40;0.40;;;22.70;55.70;;;;;;5135063;27;20028;-65
2023/08/30 10:14:05;;;;;;;0.40;0.40;;;22.70;55.70;;;;;;5125132;27;20064;-66
2023/08/30 10:16:56;;;;;;;0.40;0.40;;;22.70;55.70;;;;;;5133432;27;20031;-66
2023/08/30 10:19:27;;;;;;;0.40;0.40;;;22.70;56.20;;;;;;5135529;27;20024;-65
2023/08/30 10:22:08;;;;;;;;;;;22.70;56.20;;;;;;5136273;27;20023;-65
2023/08/30 10:24:44;;;;;;;0.50;0.50;;;22.70;55.70;;;;;;5135367;27;20397;-65
2023/08/30 10:27:11;;;;;;;0.45;0.40;;;22.70;55.70;;;;;;5134376;27;20054;-69
2023/08/30 10:29:39;;;;;;;0.30;0.30;;;22.70;55.70;;;;;;5134370;27;20024;-67
2023/08/30 10:32:05;;;;;;;0.40;0.40;;;22.70;55.70;;;;;;5134117;27;20040;-67
2023/08/30 10:34:35;;;;;;;0.50;0.50;;;22.70;55.70;;;;;;5133816;27;20015;-67
2023/08/30 10:37:03;;;;;;;0.50;0.50;;;22.70;55.70;;;;;;5148026;27;20024;-67
2023/08/30 10:39:36;;;;;;;0.40;0.40;;;22.70;55.80;;;;;;5132114;27;20028;-67
2023/08/30 10:42:08;;;;;;;0.63;0.63;;;22.70;55.80;;;;;;5131369;27;20028;-67
2023/08/30 10:44:34;;;;;;;0.50;0.50;;;22.70;55.80;;;;;;5132803;27;20028;-68
2023/08/30 10:47:02;;;;;;;0.50;0.50;;;22.70;55.80;;;;;;5132974;27;20056;-68
2023/08/30 10:49:27;;;;;;;0.55;0.50;;;22.70;55.80;;;;;;5134621;27;20028;-65
2023/08/30 10:52:00;;;;;;;0.38;0.38;;;22.70;55.70;;;;;;5132340;27;20027;-66
2023/08/30 10:54:38;;;;;;;1.25;0.93;;;22.70;55.70;;;;;;5134725;27;20047;-64
2023/08/30 10:57:03;;;;;;;0.40;0.40;;;22.70;55.70;;;;;;5133140;27;20049;-65
2023/08/30 10:59:29;;;;;;;0.50;0.50;;;22.70;55.70;;;;;;5132152;27;20117;-65
2023/08/30 11:01:55;;;;;;;0.50;0.50;;;22.70;55.70;;;;;;5131903;27;20034;-64
2023/08/30 11:04:23;;;;;;;0.50;0.50;;;22.70;55.70;;;;;;5133396;27;20099;-65
2023/08/30 11:06:50;;;;;;;0.43;0.43;;;22.70;55.70;;;;;;5133453;27;20024;-66
2023/08/30 11:09:18;;;;;;;0.50;0.50;;;22.70;55.70;;;;;;5134910;27;20835;-66
2023/08/30 11:11:48;;;;;;;0.52;0.50;;;22.70;55.70;;;;;;5133112;27;20030;-64
2023/08/30 11:14:15;;;;;;;0.45;0.45;;;22.70;55.70;;;;;;5131144;27;20039;-65
2023/08/30 11:16:41;;;;;;;0.40;0.40;;;22.70;55.80;;;;;;5132615;27;20032;-65
2023/08/30 11:19:09;;;;;;;0.57;0.50;;;22.70;55.70;;;;;;5136984;27;20031;-64
2023/08/30 11:21:39;;;;;;;0.70;0.50;;;22.70;55.80;;;;;;5133641;27;20015;-65
2023/08/30 11:24:06;;;;;;;0.40;0.40;;;22.70;55.80;;;;;;5131781;27;20032;-65
2023/08/30 11:26:32;;;;;;;0.50;0.40;;;22.70;55.80;;;;;;5132191;27;20019;-64
2023/08/30 11:28:57;;;;;;;0.40;0.40;;;22.70;55.70;;;;;;5132649;27;20039;-64
2023/08/30 11:31:28;;;;;;;0.22;0.22;;;22.70;55.80;;;;;;5131473;27;20039;-65
2023/08/30 11:33:55;;;;;;;0.60;0.40;;;22.70;55.70;;;;;;5132586;27;20019;-64
2023/08/30 11:36:22;;;;;;;0.30;0.30;;;22.70;55.70;;;;;;5132273;27;20434;-64
2023/08/30 11:38:52;;;;;;;0.40;0.40;;;22.70;55.80;;;;;;5133552;27;20090;-65
2023/08/30 11:41:19;;;;;;;0.50;0.50;;;22.70;55.80;;;;;;5132799;27;20015;-65
2023/08/30 11:43:45;;;;;;;0.40;0.40;;;22.70;55.70;;;;;;5132912;27;20053;-65
2023/08/30 11:46:12;;;;;;;0.50;0.50;;;22.70;56.10;;;;;;5133829;27;20016;-66
2023/08/30 11:48:39;;;;;;;0.50;0.50;;;22.70;55.70;;;;;;5132017;27;20019;-66
2023/08/30 11:51:05;;;;;;;0.50;0.50;;;22.70;55.80;;;;;;5133522;27;20039;-66
2023/08/30 11:53:31;;;;;;;0.50;0.50;;;22.70;55.80;;;;;;5124890;27;20031;-65
2023/08/30 11:55:57;;;;;;;0.50;0.50;;;22.70;55.80;;;;;;5132315;27;20024;-65
2023/08/30 11:58:23;;;;;;;0.40;0.40;;;22.70;55.80;;;;;;5148504;27;20053;-65
2023/08/30 12:00:54;;;;;;;0.40;0.40;;;22.70;55.70;;;;;;5133014;27;20387;-65
2023/08/30 12:03:22;;;;;;;0.30;0.30;;;22.70;55.70;;;;;;5131628;27;20023;-65
2023/08/30 12:05:50;;;;;;;0.40;0.40;;;22.70;55.70;;;;;;5131595;27;20031;-65
2023/08/30 12:08:25;;;;;;;0.50;0.50;;;22.70;55.70;;;;;;5124308;27;20024;-65
2023/08/30 12:10:51;;;;;;;0.50;0.50;;;22.70;55.80;;;;;;5132576;27;20589;-65
2023/08/30 12:13:33;;;;;;;0.63;0.60;;;22.70;55.70;;;;;;5133043;27;20114;-65
2023/08/30 12:15:59;;;;;;;0.32;0.32;;;22.70;55.70;;;;;;5131915;27;20038;-65
2023/08/30 12:18:29;;;;;;;0.40;0.40;;;22.70;55.70;;;;;;5130989;27;20160;-66
2023/08/30 12:20:57;;;;;;;0.50;0.50;;;22.70;55.70;;;;;;5134763;27;20027;-66
2023/08/30 12:23:23;;;;;;;0.40;0.40;;;22.70;55.70;;;;;;5131588;27;20023;-66
2023/08/30 12:26:06;;;;;;;0.40;0.40;;;22.70;55.70;;;;;;5131189;27;20015;-65
2023/08/30 12:28:36;;;;;;;0.50;0.50;;;22.70;55.70;;;;;;5133089;27;20116;-67
2023/08/30 12:31:06;;;;;;;0.45;0.45;;;22.70;56.30;;;;;;5131467;27;20024;-67
2023/08/30 12:33:33;;;;;;;0.55;0.55;;;22.70;55.70;;;;;;5129507;27;20020;-67
2023/08/30 12:35:59;;;;;;;0.40;0.40;;;22.70;55.70;;;;;;5132477;27;20026;-67
2023/08/30 12:38:25;;;;;;;0.40;0.40;;;22.70;55.70;;;;;;5131026;28;20051;-68
2023/08/30 12:40:52;;;;;;;0.50;0.50;;;22.80;55.80;;;;;;5133013;28;20092;-68
2023/08/30 12:43:19;;;;;;;0.50;0.40;;;22.70;55.70;;;;;;5131982;28;20024;-68
2023/08/30 12:45:46;;;;;;;0.50;0.50;;;22.70;55.70;;;;;;5131925;28;20083;-67
2023/08/30 12:48:16;;;;;;;0.50;0.50;;;22.70;55.70;;;;;;5131299;28;20026;-68